Time;durP1;ratioP1;P1;durP2;ratioP2;P2;SDS_P1;SDS_P2;PMS_P1;PMS_P2;Temp;Humidity;BMP_temperature;BMP_pressure;BME280_temperature;BME280_humidity;BME280_pressure;Samples;Min_cycle;Max_cycle;Signal;HPM_P1;HPM_P2
2023/08/22 00:00:26;;;;;;;8.50;6.22;;;;;;;18.43;100.00;93559.78;2107105;28;20028;-83
2023/08/22 00:01:27;;;;;;;6.65;6.05;;;;;;;18.40;100.00;93568.84;2114787;28;20125;-83
2023/08/22 00:02:28;;;;;;;7.45;6.05;;;;;;;18.35;100.00;93568.25;2106784;28;20024;-83
2023/08/22 00:03:30;;;;;;;7.03;6.32;;;;;;;18.27;100.00;93564.34;2091193;28;20125;-83
2023/08/22 00:04:31;;;;;;;6.85;6.15;;;;;;;18.24;100.00;93562.53;2105989;28;20097;-83
2023/08/22 00:05:32;;;;;;;6.70;6.10;;;;;;;18.24;100.00;93562.53;2106980;28;20024;-83
2023/08/22 00:06:33;;;;;;;7.47;6.78;;;;;;;18.33;100.00;93562.50;2114765;28;20080;-82
2023/08/22 00:07:34;;;;;;;7.18;6.20;;;;;;;18.39;100.00;93565.34;2115271;27;20023;-82
2023/08/22 00:08:35;;;;;;;7.40;6.57;;;;;;;18.36;100.00;93564.31;2123763;27;20030;-82
2023/08/22 00:09:36;;;;;;;6.78;5.95;;;;;;;18.40;100.00;93566.88;2123448;27;20027;-82
2023/08/22 00:10:47;;;;;;;8.80;5.88;;;;;;;18.42;100.00;93561.00;2123734;27;20023;-84
2023/08/22 00:11:48;;;;;;;7.75;6.55;;;;;;;18.35;100.00;93564.78;2117622;27;20024;-83
2023/08/22 00:12:49;;;;;;;7.78;6.22;;;;;;;18.29;100.00;93569.28;2109370;28;20473;-83
2023/08/22 00:13:50;;;;;;;7.28;6.55;;;;;;;18.31;100.00;93564.94;2104712;28;20032;-83
2023/08/22 00:14:52;;;;;;;8.57;6.85;;;;;;;18.28;100.00;93565.84;2115048;28;20498;-83
2023/08/22 00:16:00;;;;;;;7.53;6.75;;;;;;;18.31;100.00;93566.91;2104121;28;20115;-83
2023/08/22 00:17:02;;;;;;;6.93;6.22;;;;;;;18.17;100.00;93564.78;2091941;28;20021;-83
2023/08/22 00:18:03;;;;;;;8.45;6.07;;;;;;;18.14;100.00;93558.34;2106590;28;20024;-82
2023/08/22 00:19:05;;;;;;;6.95;6.20;;;;;;;18.20;100.00;93567.34;2106737;28;20065;-82
2023/08/22 00:20:09;;;;;;;6.72;6.00;;;;;;;18.11;100.00;93551.88;2106777;28;20028;-83
2023/08/22 00:21:10;;;;;;;10.50;6.40;;;;;;;18.16;100.00;93557.88;2114798;28;20085;-83
2023/08/22 00:22:11;;;;;;;7.03;6.30;;;;;;;18.17;100.00;93556.69;2119449;27;20487;-83
2023/08/22 00:23:12;;;;;;;8.13;6.35;;;;;;;18.18;100.00;93555.50;2124680;27;20478;-83
2023/08/22 00:24:13;;;;;;;7.18;6.50;;;;;;;18.17;100.00;93556.69;2115359;28;20100;-83
2023/08/22 00:25:14;;;;;;;7.38;6.68;;;;;;;18.19;100.00;93551.56;2106817;28;20023;-83
2023/08/22 00:26:15;;;;;;;9.25;6.35;;;;;;;18.14;100.00;93552.94;2107888;28;20369;-83
2023/08/22 00:27:16;;;;;;;7.10;6.05;;;;;;;18.12;100.00;93547.22;2106968;27;20045;-82
2023/08/22 00:28:17;;;;;;;8.25;5.82;;;;;;;18.11;100.00;93549.16;2123624;27;20049;-82
2023/08/22 00:29:18;;;;;;;7.88;6.47;;;;;;;18.09;100.00;93550.84;2121065;27;20142;-83
2023/08/22 00:30:19;;;;;;;8.27;6.40;;;;;;;18.05;100.00;93545.59;2115169;28;20027;-82
2023/08/22 00:31:20;;;;;;;9.95;6.18;;;;;;;18.09;100.00;93548.13;2121021;27;20106;-82
2023/08/22 00:32:21;;;;;;;7.70;6.20;;;;;;;18.06;100.00;93554.44;2131527;27;20046;-82
2023/08/22 00:33:22;;;;;;;8.18;6.40;;;;;;;18.10;100.00;93550.38;2106659;28;20067;-83
2023/08/22 00:34:23;;;;;;;7.47;6.68;;;;;;;18.12;100.00;93547.97;2102145;28;20089;-83
2023/08/22 00:35:25;;;;;;;6.78;5.95;;;;;;;18.14;100.00;93549.47;2115093;28;20051;-83
2023/08/22 00:36:34;;;;;;;6.90;5.80;;;;;;;18.12;100.00;93547.22;2114539;28;20498;-83
2023/08/22 00:37:35;;;;;;;6.78;5.93;;;;;;;18.04;100.00;93554.13;2108635;28;20059;-83
2023/08/22 00:38:36;;;;;;;7.53;6.82;;;;;;;18.06;100.00;93551.75;2106535;28;20032;-83
2023/08/22 00:39:37;;;;;;;6.28;5.78;;;;;;;18.12;100.00;93552.63;2106403;28;20484;-83
2023/08/22 00:40:38;;;;;;;8.30;6.25;;;;;;;18.09;100.00;93550.84;2098621;28;20024;-83
2023/08/22 00:41:39;;;;;;;7.82;6.68;;;;;;;18.09;100.00;93556.25;2099223;28;20035;-83
2023/08/22 00:42:40;;;;;;;7.10;6.40;;;;;;;18.06;100.00;93551.75;2100739;28;20024;-84
2023/08/22 00:43:41;;;;;;;7.25;6.50;;;;;;;17.96;100.00;93551.00;2114869;28;20396;-83
2023/08/22 00:44:42;;;;;;;8.88;6.30;;;;;;;17.99;100.00;93546.63;2111556;28;20694;-83
2023/08/22 00:45:43;;;;;;;8.35;6.35;;;;;;;17.94;100.00;93548.00;2115058;28;20419;-83
2023/08/22 00:46:45;;;;;;;6.63;5.97;;;;;;;18.02;100.00;93540.31;2106414;28;20032;-83
2023/08/22 00:47:46;;;;;;;9.55;6.43;;;;;;;18.06;100.00;93543.63;2106314;28;20523;-83
2023/08/22 00:48:47;;;;;;;7.78;6.45;;;;;;;18.09;100.00;93543.47;2106849;28;20020;-82
2023/08/22 00:49:49;;;;;;;6.65;6.05;;;;;;;18.10;100.00;93542.25;2114560;28;20783;-82
2023/08/22 00:50:50;;;;;;;7.53;6.13;;;;;;;18.06;100.00;93543.63;2106616;28;20617;-83
2023/08/22 00:51:52;;;;;;;7.30;6.60;;;;;;;18.06;100.00;93544.38;2114942;28;20031;-83
2023/08/22 00:52:53;;;;;;;8.32;6.60;;;;;;;17.96;100.00;93542.88;2102734;28;20023;-83
2023/08/22 00:53:54;;;;;;;7.80;6.78;;;;;;;17.95;100.00;93544.06;2106648;27;20808;-83
2023/08/22 00:54:55;;;;;;;8.25;6.47;;;;;;;17.89;100.00;93542.44;2117349;27;20035;-83
2023/08/22 00:55:57;;;;;;;8.38;6.97;;;;;;;17.86;100.00;93542.13;2111591;28;20400;-82
2023/08/22 00:56:59;;;;;;;6.70;6.15;;;;;;;17.89;100.00;93542.44;2115151;27;20027;-82
2023/08/22 00:58:00;;;;;;;6.78;6.18;;;;;;;17.84;100.00;93544.53;2128759;27;20022;-82
2023/08/22 00:59:03;;;;;;;7.05;6.45;;;;;;;17.95;100.00;93541.38;2123242;27;20023;-83
2023/08/22 01:00:06;;;;;;;7.60;6.82;;;;;;;17.94;100.00;93541.81;2114753;28;20019;-83
2023/08/22 01:01:07;;;;;;;9.13;6.78;;;;;;;17.98;100.00;93540.47;2123313;27;20084;-83
2023/08/22 01:02:09;;;;;;;8.25;6.57;;;;;;;17.89;100.00;93539.72;2114388;28;20115;-83
2023/08/22 01:03:10;;;;;;;8.65;6.47;;;;;;;17.93;100.00;93530.25;2114087;28;20027;-83
2023/08/22 01:04:11;;;;;;;7.55;6.85;;;;;;;17.93;100.00;93532.97;2106705;28;20020;-83
2023/08/22 01:05:12;;;;;;;10.38;6.20;;;;;;;17.94;100.00;93533.72;2114961;28;20031;-83
2023/08/22 01:06:22;;;;;;;6.85;6.25;;;;;;;17.93;100.00;93534.94;2114655;28;20027;-84
2023/08/22 01:07:52;;;;;;;7.77;6.20;;;;;;;17.88;100.00;93527.41;2107601;28;20035;-83
2023/08/22 01:09:02;;;;;;;7.22;6.35;;;;;;;17.84;100.00;93524.88;2092927;28;20453;-83
2023/08/22 01:10:13;;;;;;;6.82;6.20;;;;;;;17.89;100.00;93534.31;2105783;28;20024;-83
2023/08/22 01:11:29;;;;;;;7.45;6.57;;;;;;;17.88;100.00;93530.13;2103202;28;20020;-83
2023/08/22 01:12:47;;;;;;;7.10;6.30;;;;;;;17.84;100.00;93522.91;2100399;28;20028;-82
2023/08/22 01:13:52;;;;;;;8.82;6.38;;;;;;;17.88;100.00;93527.41;2102731;28;20116;-83
2023/08/22 01:15:20;;;;;;;7.43;6.70;;;;;;;17.88;100.00;93522.00;2108864;27;20477;-83
2023/08/22 01:16:21;;;;;;;6.95;6.13;;;;;;;17.84;100.00;93519.44;2118415;27;20113;-83
2023/08/22 01:17:22;;;;;;;8.27;6.55;;;;;;;17.85;100.00;93526.34;2123098;27;20034;-83
2023/08/22 01:18:30;;;;;;;7.90;6.82;;;;;;;17.78;100.00;93521.25;2114337;28;20499;-83
2023/08/22 01:19:32;;;;;;;7.47;6.50;;;;;;;17.85;100.00;93531.75;2123631;27;20104;-83
2023/08/22 01:20:34;;;;;;;7.60;6.53;;;;;;;17.80;100.00;93516.91;2123081;27;20026;-83
2023/08/22 01:21:35;;;;;;;7.07;6.47;;;;;;;17.89;100.00;93521.56;2107640;28;20425;-83
2023/08/22 01:22:37;;;;;;;7.90;6.40;;;;;;;17.84;100.00;93514.78;2106010;28;20047;-83
2023/08/22 01:23:38;;;;;;;8.85;6.40;;;;;;;17.80;100.00;93521.56;2097843;28;20066;-82
2023/08/22 01:24:39;;;;;;;7.05;6.35;;;;;;;17.75;100.00;93519.47;2109410;28;20065;-83
2023/08/22 01:25:40;;;;;;;8.35;6.40;;;;;;;17.74;100.00;93524.13;2123108;27;20019;-83
2023/08/22 01:26:42;;;;;;;7.32;6.28;;;;;;;17.70;100.00;93528.16;2122742;27;20110;-83
2023/08/22 01:28:05;;;;;;;6.72;6.13;;;;;;;17.68;100.00;93525.88;2114315;28;20027;-83
2023/08/22 01:29:10;;;;;;;6.97;6.13;;;;;;;17.66;100.00;93524.84;2109417;28;20020;-83
2023/08/22 01:30:19;;;;;;;6.97;6.32;;;;;;;17.62;100.00;93519.59;2105784;28;20098;-83
2023/08/22 01:31:33;;;;;;;7.15;6.20;;;;;;;17.68;100.00;93522.44;2114463;28;20070;-84
2023/08/22 01:32:40;;;;;;;9.48;6.07;;;;;;;17.70;100.00;93518.09;2106181;28;20020;-82
2023/08/22 01:33:50;;;;;;;7.25;6.43;;;;;;;17.72;100.00;93517.63;2099376;28;20471;-83
2023/08/22 01:34:56;;;;;;;7.47;6.40;;;;;;;17.68;100.00;93515.06;2107171;28;20114;-83
2023/08/22 01:35:57;;;;;;;6.45;5.93;;;;;;;17.65;100.00;93523.31;2112902;28;20035;-83
2023/08/22 01:36:59;;;;;;;7.57;6.72;;;;;;;17.64;100.00;93530.69;2114587;28;20762;-83
2023/08/22 01:38:01;;;;;;;9.77;7.05;;;;;;;17.56;100.00;93524.84;2109190;28;20041;-83
2023/08/22 01:39:16;;;;;;;8.13;6.78;;;;;;;17.59;100.00;93525.88;2097992;28;20016;-82
2023/08/22 01:40:17;;;;;;;10.07;6.22;;;;;;;17.56;100.00;93530.25;2109852;27;20027;-83
2023/08/22 01:41:19;;;;;;;7.43;6.18;;;;;;;17.59;100.00;93528.59;2111483;28;20411;-83
2023/08/22 01:42:21;;;;;;;6.10;5.50;;;;;;;17.59;100.00;93521.22;2120224;27;20383;-83
2023/08/22 01:43:21;;;;;;;7.70;6.35;;;;;;;17.54;100.00;93521.09;2122861;27;20023;-82
2023/08/22 01:44:24;;;;;;;8.18;6.25;;;;;;;17.52;100.00;93520.78;2113716;28;20023;-83
2023/08/22 01:45:25;;;;;;;7.10;6.40;;;;;;;17.61;100.00;93520.78;2108695;28;20034;-83
2023/08/22 01:46:26;;;;;;;6.72;6.18;;;;;;;17.58;100.00;93519.72;2110305;28;20519;-83
2023/08/22 01:47:27;;;;;;;7.57;6.25;;;;;;;17.54;100.00;93519.13;2098011;28;20032;-83
2023/08/22 01:48:28;;;;;;;7.05;6.38;;;;;;;17.56;100.00;93519.44;2112985;28;20638;-83
2023/08/22 01:49:30;;;;;;;6.97;6.38;;;;;;;17.56;100.00;93518.66;2112605;28;20114;-83
2023/08/22 01:50:31;;;;;;;7.35;6.55;;;;;;;17.60;100.00;93525.44;2097569;28;20116;-83
2023/08/22 01:51:32;;;;;;;8.48;6.05;;;;;;;17.61;100.00;93526.94;2097386;28;20027;-83
2023/08/22 01:52:33;;;;;;;6.95;6.25;;;;;;;17.62;100.00;93525.00;2105889;28;20020;-83
2023/08/22 01:53:33;;;;;;;7.13;6.30;;;;;;;17.58;100.00;93517.03;2114138;28;20018;-83
2023/08/22 01:54:37;;;;;;;7.15;6.47;;;;;;;17.46;100.00;93517.16;2112022;28;20038;-81
2023/08/22 01:55:38;;;;;;;7.07;6.38;;;;;;;17.43;100.00;93512.66;2106300;28;20527;-83
2023/08/22 01:56:39;;;;;;;8.40;7.07;;;;;;;17.40;100.00;93513.56;2105865;28;20035;-82
2023/08/22 01:57:40;;;;;;;7.15;6.55;;;;;;;17.42;100.00;93517.31;2114318;28;20034;-83
2023/08/22 01:58:41;;;;;;;8.20;6.10;;;;;;;17.39;100.00;93518.22;2114377;28;20069;-83
2023/08/22 01:59:44;;;;;;;6.70;6.00;;;;;;;17.41;100.00;93505.00;2102729;28;20025;-83
2023/08/22 02:00:45;;;;;;;7.13;6.40;;;;;;;17.50;100.00;93509.66;2110093;28;20026;-83
2023/08/22 02:01:46;;;;;;;6.47;5.88;;;;;;;17.40;100.00;93508.91;2112220;28;20031;-83
2023/08/22 02:02:47;;;;;;;8.63;6.60;;;;;;;17.44;100.00;93503.38;2107121;28;20024;-82
2023/08/22 02:03:48;;;;;;;11.13;6.53;;;;;;;17.41;100.00;93506.97;2114566;28;20098;-82
2023/08/22 02:04:49;;;;;;;10.60;6.30;;;;;;;17.36;100.00;93514.47;2101496;28;20107;-83
2023/08/22 02:05:50;;;;;;;8.45;6.28;;;;;;;17.32;100.00;93505.75;2105834;28;20054;-83
2023/08/22 02:06:51;;;;;;;6.68;5.95;;;;;;;17.29;100.00;93500.50;2105901;28;20024;-83
2023/08/22 02:07:52;;;;;;;7.70;6.35;;;;;;;17.26;100.00;93504.09;2110388;28;20027;-83
2023/08/22 02:08:53;;;;;;;7.25;6.40;;;;;;;17.29;100.00;93503.19;2097579;28;20036;-83
2023/08/22 02:09:54;;;;;;;6.72;6.05;;;;;;;17.32;100.00;93507.72;2097453;28;20020;-83
2023/08/22 02:10:56;;;;;;;7.28;6.53;;;;;;;17.37;100.00;93504.41;2114418;28;20523;-83
2023/08/22 02:11:57;;;;;;;7.32;6.55;;;;;;;17.37;100.00;93504.41;2108596;28;20028;-83
2023/08/22 02:12:58;;;;;;;7.38;6.43;;;;;;;17.33;100.00;93503.78;2113914;28;20080;-82
2023/08/22 02:13:59;;;;;;;7.55;6.25;;;;;;;17.29;100.00;93500.50;2122486;27;20030;-82
2023/08/22 02:15:00;;;;;;;6.93;6.22;;;;;;;17.24;100.00;93501.09;2108554;28;20031;-83
2023/08/22 02:16:01;;;;;;;8.95;6.22;;;;;;;17.24;100.00;93499.13;2114316;28;20031;-83
2023/08/22 02:17:02;;;;;;;6.95;6.25;;;;;;;17.20;100.00;93497.78;2122524;27;20023;-83
2023/08/22 02:18:04;;;;;;;7.93;6.57;;;;;;;17.28;100.00;93501.69;2122635;27;20102;-82
2023/08/22 02:19:05;;;;;;;6.43;5.80;;;;;;;17.21;100.00;93497.34;2118558;27;20032;-83
2023/08/22 02:20:20;;;;;;;10.05;6.63;;;;;;;17.28;100.00;93501.69;2114092;28;20033;-83
2023/08/22 02:22:41;;;;;;;10.63;6.53;;;;;;;17.28;100.00;93505.16;2148037;27;20578;-82
2023/08/22 02:23:42;;;;;;;9.05;6.13;;;;;;;17.28;100.00;93505.16;2114044;28;20039;-83
2023/08/22 02:24:43;;;;;;;8.07;7.15;;;;;;;17.25;100.00;93499.88;2113103;28;20028;-83
2023/08/22 02:25:44;;;;;;;7.22;6.25;;;;;;;17.17;100.00;93498.69;2113266;28;20023;-83
2023/08/22 02:26:46;;;;;;;7.40;6.50;;;;;;;17.17;100.00;93504.09;2119717;28;20015;-83
2023/08/22 02:27:47;;;;;;;8.30;6.60;;;;;;;17.11;100.00;93498.50;2113897;27;20550;-83
2023/08/22 02:28:50;;;;;;;7.47;6.75;;;;;;;17.18;100.00;93500.94;2130189;27;20072;-82
2023/08/22 02:29:51;;;;;;;12.07;7.20;;;;;;;17.20;100.00;93497.78;2125434;27;20019;-83
2023/08/22 02:30:56;;;;;;;9.70;6.60;;;;;;;17.22;100.00;93496.16;2113199;28;20034;-82
2023/08/22 02:31:57;;;;;;;7.22;6.63;;;;;;;17.20;100.00;93497.78;2112768;28;20464;-83
2023/08/22 02:32:58;;;;;;;7.78;6.10;;;;;;;17.20;100.00;93495.06;2110682;28;20023;-82
2023/08/22 02:33:59;;;;;;;7.53;6.68;;;;;;;17.12;100.00;93497.34;2110668;28;20091;-83
2023/08/22 02:35:00;;;;;;;7.25;6.50;;;;;;;17.06;100.00;93493.72;2101569;28;20400;-83
2023/08/22 02:36:01;;;;;;;6.97;6.28;;;;;;;17.06;100.00;93493.72;2126198;27;20011;-82
2023/08/22 02:37:02;;;;;;;8.85;6.45;;;;;;;17.05;100.00;93498.38;2135040;27;20076;-82
2023/08/22 02:38:04;;;;;;;7.50;6.90;;;;;;;17.04;100.00;93491.47;2133510;27;20049;-83
2023/08/22 02:39:05;;;;;;;7.53;6.80;;;;;;;17.06;100.00;93496.41;2123661;28;20050;-83
2023/08/22 02:40:09;;;;;;;7.05;6.43;;;;;;;17.06;100.00;93491.00;2126984;27;20023;-83
2023/08/22 02:41:10;;;;;;;7.63;6.93;;;;;;;17.02;100.00;93491.16;2113875;28;20379;-83
2023/08/22 02:42:11;;;;;;;7.13;5.85;;;;;;;17.04;100.00;93493.41;2112901;28;20019;-83
2023/08/22 02:43:12;;;;;;;6.75;6.07;;;;;;;17.09;100.00;93490.13;2096671;28;20437;-82
2023/08/22 02:44:13;;;;;;;6.88;6.28;;;;;;;17.07;100.00;93492.50;2104739;28;20024;-82
2023/08/22 02:45:14;;;;;;;6.63;5.97;;;;;;;17.03;100.00;93489.19;2097654;28;20027;-83
2023/08/22 02:46:15;;;;;;;13.65;7.10;;;;;;;17.00;100.00;93495.50;2104814;28;20020;-83
2023/08/22 02:47:18;;;;;;;7.45;6.40;;;;;;;16.96;100.00;93494.91;2104826;28;20032;-83
2023/08/22 02:48:19;;;;;;;6.63;6.05;;;;;;;16.99;100.00;93497.47;2096605;28;20017;-84
2023/08/22 02:49:20;;;;;;;6.70;5.95;;;;;;;16.97;100.00;93497.16;2096386;28;20040;-83
2023/08/22 02:50:23;;;;;;;8.52;6.75;;;;;;;17.00;100.00;93493.56;2098314;28;20029;-83
2023/08/22 02:51:24;;;;;;;7.65;6.50;;;;;;;17.02;100.00;93491.16;2104469;28;20059;-82
2023/08/22 02:52:25;;;;;;;6.97;6.30;;;;;;;17.00;100.00;93496.25;2096347;28;20484;-82
2023/08/22 02:53:26;;;;;;;8.98;6.50;;;;;;;17.00;100.00;93493.56;2101663;28;20028;-83
2023/08/22 02:54:27;;;;;;;7.10;6.40;;;;;;;16.97;100.00;93491.75;2104339;28;20048;-82
2023/08/22 02:55:28;;;;;;;7.55;6.85;;;;;;;16.93;100.00;93493.09;2113024;28;20105;-82
2023/08/22 02:56:29;;;;;;;7.03;6.32;;;;;;;16.97;100.00;93493.69;2099218;28;20020;-83
2023/08/22 02:57:30;;;;;;;8.20;6.65;;;;;;;16.92;100.00;93497.75;2113141;28;20028;-82
2023/08/22 02:58:31;;;;;;;8.48;6.68;;;;;;;16.89;100.00;93493.22;2112813;28;20054;-83
2023/08/22 02:59:33;;;;;;;7.25;6.40;;;;;;;16.86;100.00;93496.84;2111933;28;20020;-83
2023/08/22 03:00:35;;;;;;;6.90;6.28;;;;;;;16.93;100.00;93493.84;2112996;28;20031;-82
2023/08/22 03:01:36;;;;;;;7.78;6.70;;;;;;;16.93;100.00;93490.38;2096142;28;20066;-82
2023/08/22 03:02:37;;;;;;;10.07;6.85;;;;;;;16.88;100.00;93494.44;2108243;28;20484;-82
2023/08/22 03:03:38;;;;;;;6.97;6.28;;;;;;;16.89;100.00;93490.53;2117327;28;20130;-83
2023/08/22 03:04:39;;;;;;;8.38;6.35;;;;;;;16.85;100.00;93490.66;2108670;28;20031;-83
2023/08/22 03:05:40;;;;;;;7.70;6.93;;;;;;;16.80;100.00;93493.94;2112703;28;20050;-83
2023/08/22 03:06:41;;;;;;;9.15;6.45;;;;;;;16.84;100.00;93494.56;2108716;28;20035;-83
2023/08/22 03:07:42;;;;;;;7.55;6.53;;;;;;;16.85;100.00;93498.75;2108562;28;20032;-83
2023/08/22 03:08:43;;;;;;;10.32;6.43;;;;;;;16.85;100.00;93498.00;2119002;28;20034;-83
2023/08/22 03:09:45;;;;;;;8.10;6.72;;;;;;;16.78;100.00;93495.59;2112749;28;20051;-82
2023/08/22 03:10:46;;;;;;;7.70;6.50;;;;;;;16.80;100.00;93493.94;2112482;28;20101;-82
2023/08/22 03:11:47;;;;;;;11.30;6.70;;;;;;;16.84;100.00;93497.25;2112635;28;20026;-83
2023/08/22 03:12:50;;;;;;;6.63;6.07;;;;;;;16.80;100.00;93495.91;2112892;28;20487;-82
2023/08/22 03:13:51;;;;;;;9.48;6.43;;;;;;;16.78;100.00;93492.91;2113314;28;20024;-82
2023/08/22 03:14:52;;;;;;;6.90;6.30;;;;;;;16.82;100.00;93493.53;2114596;28;20024;-83
2023/08/22 03:15:53;;;;;;;8.38;6.28;;;;;;;16.79;100.00;93489.75;2107885;28;20028;-83
2023/08/22 03:16:54;;;;;;;7.25;6.55;;;;;;;16.74;100.00;93493.03;2112917;28;20030;-83
2023/08/22 03:17:55;;;;;;;9.30;6.30;;;;;;;16.81;100.00;93492.00;2128704;27;20106;-83
2023/08/22 03:18:57;;;;;;;10.43;6.32;;;;;;;16.81;100.00;93490.06;2128321;27;20023;-83
2023/08/22 03:20:03;;;;;;;6.97;6.38;;;;;;;16.80;100.00;93496.66;2112584;28;20082;-83
2023/08/22 03:21:05;;;;;;;7.10;6.50;;;;;;;16.75;100.00;93499.94;2100567;28;20526;-83
2023/08/22 03:22:07;;;;;;;7.90;6.80;;;;;;;16.72;100.00;93492.72;2095812;28;20133;-83
2023/08/22 03:23:08;;;;;;;6.55;5.95;;;;;;;16.68;100.00;93499.44;2102965;28;20078;-82
2023/08/22 03:24:09;;;;;;;6.90;6.25;;;;;;;16.63;100.00;93490.72;2095544;28;20451;-83
2023/08/22 03:25:10;;;;;;;6.75;6.20;;;;;;;16.66;100.00;93493.72;2104362;28;20088;-83
2023/08/22 03:26:11;;;;;;;6.55;5.95;;;;;;;16.72;100.00;93492.72;2117435;27;20440;-82
2023/08/22 03:27:12;;;;;;;7.50;6.80;;;;;;;16.72;100.00;93492.72;2121217;28;20023;-82
2023/08/22 03:28:13;;;;;;;9.00;6.57;;;;;;;16.68;100.00;93499.44;2104748;28;20028;-83
2023/08/22 03:29:14;;;;;;;7.70;6.57;;;;;;;16.67;100.00;93495.97;2098226;28;20027;-82
2023/08/22 03:30:15;;;;;;;8.40;6.40;;;;;;;16.65;100.00;93503.03;2104420;28;20503;-83
2023/08/22 03:31:16;;;;;;;6.90;6.30;;;;;;;16.66;100.00;93493.72;2098367;28;20385;-83
2023/08/22 03:32:17;;;;;;;7.45;6.68;;;;;;;16.70;100.00;93495.09;2104410;28;20111;-82
2023/08/22 03:33:18;;;;;;;8.05;6.72;;;;;;;16.63;100.00;93498.06;2120034;28;20030;-82
2023/08/22 03:34:19;;;;;;;7.57;6.45;;;;;;;16.68;100.00;93491.34;2097865;28;20118;-82
2023/08/22 03:35:21;;;;;;;7.15;6.35;;;;;;;16.69;100.00;93487.47;2098835;28;20081;-82
2023/08/22 03:36:21;;;;;;;7.28;6.57;;;;;;;16.65;100.00;93492.25;2106871;28;20077;-83
2023/08/22 03:37:22;;;;;;;6.93;6.32;;;;;;;16.65;100.00;93493.00;2101056;28;20058;-83
2023/08/22 03:38:25;;;;;;;7.30;6.60;;;;;;;16.68;100.00;93494.03;2098478;28;20028;-83
2023/08/22 03:39:26;;;;;;;10.68;7.95;;;;;;;16.64;100.00;93494.19;2102288;28;20062;-83
2023/08/22 03:40:27;;;;;;;8.52;7.25;;;;;;;16.68;100.00;93504.81;2098465;28;20032;-83
2023/08/22 03:41:28;;;;;;;8.18;7.32;;;;;;;16.64;100.00;93502.28;2098380;28;20024;-83
2023/08/22 03:42:29;;;;;;;7.65;6.82;;;;;;;16.56;100.00;93491.00;2114526;28;20023;-83
2023/08/22 03:43:30;;;;;;;6.93;6.30;;;;;;;16.58;100.00;93494.00;2098516;28;20131;-83
2023/08/22 03:44:31;;;;;;;8.77;6.53;;;;;;;16.55;100.00;93494.91;2098236;28;20012;-83
2023/08/22 03:45:32;;;;;;;6.90;6.30;;;;;;;16.56;100.00;93492.97;2105705;28;20023;-84
2023/08/22 03:46:33;;;;;;;8.68;6.85;;;;;;;16.56;100.00;93501.06;2099919;28;20092;-83
2023/08/22 03:47:34;;;;;;;8.60;6.68;;;;;;;16.57;100.00;93497.91;2106989;28;20032;-82
2023/08/22 03:48:35;;;;;;;10.30;6.30;;;;;;;16.58;100.00;93493.25;2098563;28;20123;-82
2023/08/22 03:49:37;;;;;;;9.13;5.57;;;;;;;16.53;100.00;93494.59;2103522;28;20052;-83
2023/08/22 03:50:41;;;;;;;8.07;6.05;;;;;;;16.48;100.00;93487.06;2106946;28;20063;-82
2023/08/22 03:51:42;;;;;;;7.13;6.43;;;;;;;16.48;100.00;93489.03;2098849;28;20466;-82
2023/08/22 03:52:43;;;;;;;7.68;6.30;;;;;;;16.49;100.00;93502.06;2103464;28;20031;-83
2023/08/22 03:53:44;;;;;;;7.30;6.60;;;;;;;16.53;100.00;93488.44;2105717;28;20024;-83
2023/08/22 03:54:45;;;;;;;6.38;5.78;;;;;;;16.54;100.00;93495.34;2105099;28;20023;-82
2023/08/22 03:55:46;;;;;;;6.72;5.97;;;;;;;16.50;100.00;93494.72;2097009;28;20113;-83
2023/08/22 03:56:47;;;;;;;7.05;5.82;;;;;;;16.44;100.00;93486.47;2090256;28;20036;-83
2023/08/22 03:57:48;;;;;;;7.53;6.10;;;;;;;16.47;100.00;93490.22;2093728;28;20385;-83
2023/08/22 03:58:49;;;;;;;6.97;6.28;;;;;;;16.49;100.00;93487.81;2094468;28;20075;-83
2023/08/22 03:59:50;;;;;;;7.07;6.35;;;;;;;16.45;100.00;93487.22;2102555;28;20082;-83
2023/08/22 04:00:54;;;;;;;6.28;5.70;;;;;;;16.40;100.00;93485.84;2099993;28;20035;-83
2023/08/22 04:01:57;;;;;;;6.80;6.15;;;;;;;16.39;100.00;93489.75;2098842;28;20416;-83
2023/08/22 04:02:59;;;;;;;6.80;6.03;;;;;;;16.43;100.00;93478.81;2090351;28;20040;-83
2023/08/22 04:04:00;;;;;;;8.95;6.18;;;;;;;16.36;100.00;93477.13;2090143;28;20021;-83
2023/08/22 04:05:01;;;;;;;6.95;6.25;;;;;;;16.44;100.00;93488.41;2098532;28;20039;-83
2023/08/22 04:06:03;;;;;;;8.23;6.32;;;;;;;16.47;100.00;93485.56;2106375;28;20480;-82
2023/08/22 04:07:04;;;;;;;8.45;6.18;;;;;;;16.47;100.00;93480.19;2090238;28;20112;-82
2023/08/22 04:08:05;;;;;;;7.18;6.40;;;;;;;16.45;100.00;93490.66;2098167;28;20028;-82
2023/08/22 04:09:06;;;;;;;7.28;5.80;;;;;;;16.43;100.00;93487.66;2089876;28;20021;-83
2023/08/22 04:10:08;;;;;;;7.03;6.30;;;;;;;16.40;100.00;93493.19;2090294;28;20037;-83
2023/08/22 04:11:15;;;;;;;7.88;6.38;;;;;;;16.39;100.00;93491.69;2094318;28;20016;-82
2023/08/22 04:12:16;;;;;;;6.75;6.00;;;;;;;16.34;100.00;93493.03;2106818;28;20012;-82
2023/08/22 04:13:17;;;;;;;6.88;5.80;;;;;;;16.36;100.00;93498.72;2106514;28;20024;-83
2023/08/22 04:14:18;;;;;;;7.30;6.05;;;;;;;16.30;100.00;93495.09;2106390;28;21336;-82
2023/08/22 04:15:19;;;;;;;8.48;6.30;;;;;;;16.31;100.00;93497.34;2098402;28;20056;-82
2023/08/22 04:16:20;;;;;;;9.88;6.50;;;;;;;16.27;100.00;93499.41;2106484;28;20024;-82
2023/08/22 04:17:21;;;;;;;7.03;6.38;;;;;;;16.32;100.00;93509.63;2115988;28;20028;-83
2023/08/22 04:18:22;;;;;;;7.05;6.45;;;;;;;16.32;100.00;93503.50;2112710;28;20020;-83
2023/08/22 04:19:24;;;;;;;6.07;5.47;;;;;;;16.30;100.00;93503.94;2109921;28;20023;-82
2023/08/22 04:20:25;;;;;;;7.30;6.60;;;;;;;16.31;100.00;93510.84;2115353;28;20476;-82
2023/08/22 04:21:26;;;;;;;7.05;6.38;;;;;;;16.31;100.00;93510.84;2106065;28;20056;-83
2023/08/22 04:22:30;;;;;;;9.25;6.45;;;;;;;16.25;100.00;93514.56;2089518;28;20111;-83
2023/08/22 04:23:31;;;;;;;7.65;6.30;;;;;;;16.17;100.00;93513.31;2098812;28;20555;-83
2023/08/22 04:24:32;;;;;;;6.30;5.72;;;;;;;16.23;100.00;93511.53;2097821;28;20027;-83
2023/08/22 04:25:33;;;;;;;6.30;5.75;;;;;;;16.22;100.00;93510.03;2098466;28;20031;-82
2023/08/22 04:26:34;;;;;;;6.75;6.15;;;;;;;16.17;100.00;93505.97;2097808;28;20025;-83
2023/08/22 04:27:36;;;;;;;6.25;5.75;;;;;;;16.24;100.00;93516.50;2100224;28;20051;-82
2023/08/22 04:28:37;;;;;;;6.82;6.22;;;;;;;16.28;100.00;93513.66;2090087;28;20021;-83
2023/08/22 04:29:38;;;;;;;8.65;6.03;;;;;;;16.31;100.00;93508.13;2095441;28;20024;-83
2023/08/22 04:30:39;;;;;;;7.30;5.72;;;;;;;16.31;100.00;93507.38;2114960;28;20016;-83
2023/08/22 04:31:43;;;;;;;7.45;5.57;;;;;;;16.30;100.00;93517.44;2090717;28;20484;-83
2023/08/22 04:32:44;;;;;;;7.43;6.22;;;;;;;16.27;100.00;93521.00;2095669;28;20457;-82
2023/08/22 04:33:45;;;;;;;10.10;5.93;;;;;;;16.29;100.00;93526.72;2099412;28;20151;-82
2023/08/22 04:34:46;;;;;;;6.40;5.70;;;;;;;16.26;100.00;93518.75;2106167;28;20031;-83
2023/08/22 04:35:47;;;;;;;6.45;5.70;;;;;;;16.24;100.00;93521.91;2097896;28;20028;-82
2023/08/22 04:36:48;;;;;;;8.10;5.97;;;;;;;16.26;100.00;93521.44;2106706;28;20101;-82
2023/08/22 04:37:50;;;;;;;7.18;5.95;;;;;;;16.21;100.00;93513.94;2106195;28;20047;-83
2023/08/22 04:38:51;;;;;;;6.80;5.50;;;;;;;16.19;100.00;93516.31;2092352;28;20068;-83
2023/08/22 04:39:52;;;;;;;6.68;5.95;;;;;;;16.25;100.00;93512.63;2105055;28;20051;-83
2023/08/22 04:40:53;;;;;;;6.97;5.93;;;;;;;16.25;100.00;93520.69;2106180;28;20023;-83
2023/08/22 04:41:54;;;;;;;6.50;5.80;;;;;;;16.26;100.00;93521.44;2098246;28;20032;-83
2023/08/22 04:42:55;;;;;;;7.30;5.95;;;;;;;16.28;100.00;93516.34;2089871;28;20025;-83
2023/08/22 04:43:56;;;;;;;8.20;6.65;;;;;;;16.27;100.00;93518.31;2106671;28;20431;-82
2023/08/22 04:44:57;;;;;;;7.15;6.18;;;;;;;16.26;100.00;93513.38;2105949;28;20117;-83
2023/08/22 04:46:02;;;;;;;7.03;6.43;;;;;;;16.18;100.00;93517.50;2093236;28;20033;-82
2023/08/22 04:47:03;;;;;;;8.95;6.25;;;;;;;16.23;100.00;93509.59;2090446;28;20017;-83
2023/08/22 04:48:04;;;;;;;8.57;6.05;;;;;;;16.30;100.00;93512.03;2097890;28;20036;-83
2023/08/22 04:49:05;;;;;;;6.60;5.95;;;;;;;16.28;100.00;93502.88;2097723;28;20504;-83
2023/08/22 04:50:07;;;;;;;7.50;5.85;;;;;;;16.32;100.00;93506.94;2089976;28;20028;-82